• Join FlightAware (Why Join?)
  • Login
  • US Flag 
05:31AM EDT


 

Airport Tracker/Info


-or-


 

Live Flight TrackerFlight Track Log ✈ RPA3242 ✈ 23-May-2013 ✈ KPHL - KALB

Flight Track Log - Related Links

Times and Time Zones

All times are in EDT time to prevent confusion due to time zone crossing. See the RPA3242 flight status page for this flight to view local times or setup timezone preferences in your user account.

Time Position Orientation Groundspeed Altitude Reporting Facility
EDT Latitude Longitude Course Direction KTS MPH feet Rate Location/Type
10:54PM 39.8500 -75.2833 37° Northeast 147 169 1,200  Level Philadelphia TRACON
10:56PM 39.8000 -75.3500 226° Southwest 232 267 3,400 2,340 Climbing Philadelphia TRACON
10:57PM 39.7976 -74.7712 105° East  Level FlightAware Approximate
10:57PM 39.7333 -75.3667 191° South 267 307 6,600  Level Philadelphia TRACON
10:58PM 39.8118 -74.6716 37° Northeast  Level FlightAware Approximate
10:58PM 39.6500 -75.3833 189° South 270 311 10,300  Level Philadelphia TRACON
10:59PM 39.8852 -74.5982 37° Northeast  Level FlightAware Approximate
10:59PM 39.6000 -75.3167 134° Southeast 322 371 12,100  Level Philadelphia TRACON
11:00PM 39.9619 -74.5380 37° Northeast  Level FlightAware Approximate
11:01PM 39.6881 -75.0439 67° East 349 402 12,100  Level New York Center
11:02PM 39.7211 -74.9381 68° East 349 402 12,100 600 Level New York Center
11:03PM 39.7650 -74.8111 66° East 349 402 13,400 1,740 Climbing New York Center
11:04PM 39.8147 -74.6978 60° Northeast 354 407 15,700 2,040 Climbing New York Center
11:05PM 39.8989 -74.6131 38° Northeast 354 407 17,600 1,860 Climbing New York Center
11:06PM 39.9892 -74.5286 36° Northeast 364 419 19,500 1,860 Climbing New York Center
11:07PM 40.0753 -74.4383 39° Northeast 390 449 21,300 1,800 Climbing New York Center
11:08PM 40.1678 -74.3456 37° Northeast 401 461 23,100 1,320 Climbing New York Center
11:09PM 40.2603 -74.2469 39° Northeast 407 468 24,000 420 Climbing New York Center
11:10PM 40.3608 -74.1594 34° Northeast 426 490 24,000  Level New York Center
11:11PM 40.4692 -74.0856 27° Northeast 431 496 24,000  Level New York Center
11:14PM 40.7236 -73.9161 27° Northeast 430 495 24,000  Level Boston Center
11:15PM 40.8225 -73.8278 34° Northeast 430 495 24,000  Level Boston Center
11:16PM 40.9136 -73.7172 43° Northeast 430 495 24,000 -480 Level Boston Center
11:17PM 41.0122 -73.6339 33° Northeast 430 495 23,100 -480 Descending Boston Center
11:18PM 41.1250 -73.6333 360° North 403 464 23,000 -780 Descending Boston Center
11:19PM 41.2686 -73.6497 355° North 403 464 21,500 -1,440 Descending Boston Center
11:20PM 41.3789 -73.6600 356° North 408 470 20,200 -1,320 Descending Boston Center
11:21PM 41.4892 -73.6706 356° North 403 464 18,900 -1,500 Descending Boston Center
11:22PM 41.5892 -73.6808 356° North 403 464 17,300 -1,800 Descending Boston Center
11:23PM 41.7036 -73.6942 355° North 396 456 15,400 -1,800 Descending Boston Center
11:24PM 41.7953 -73.7042 355° North 377 434 13,700 -1,800 Descending Boston Center
11:25PM 41.8889 -73.7117 357° North 361 415 12,200 -1,560 Descending Boston Center
11:26PM 41.9847 -73.7247 354° North 347 399 10,900 -600 Descending Boston Center
11:27PM 42.0803 -73.7353 355° North 347 399 11,000  Climbing Boston Center
11:28PM 42.1761 -73.7428 357° North 345 397 11,000 -360 Level Boston Center
11:29PM 42.2761 -73.7533 356° North 339 390 10,300 -1,140 Descending Boston Center
11:30PM 42.3531 -73.7633 355° North 301 346 8,700 -1,860 Descending Boston Center
11:31PM 42.4319 -73.7847 349° North 291 335 6,900 -1,620 Descending Boston Center
11:32PM 42.5128 -73.8258 339° North 282 325 5,500 -1,200 Descending Boston Center
11:33PM 42.5833 -73.8556 343° North 268 308 4,600 -780 Descending Boston Center
11:34PM 42.6581 -73.8769 348° North 265 305 4,000 -360 Descending Boston Center
11:35PM 42.7308 -73.8986 348° North 266 306 3,900 -300 Descending Boston Center
11:36PM 42.8036 -73.9003 359° North 249 287 3,400 -720 Descending Boston Center
11:37PM 42.8600 -73.9044 357° North 201 231 2,500 -480 Descending Boston Center
11:38PM 42.9081 -73.8772 23° Northeast 201 231 2,500 -240 Level Boston Center
11:39PM 42.8922 -73.8144 109° East 181 208 2,100 -300 Descending Boston Center
11:40PM 42.8444 -73.8106 177° South 177 204 1,900 -600 Descending Boston Center
11:41PM 42.7986 -73.8097 179° South 158 182 1,000 -900 Descending Boston Center